Time;durP1;ratioP1;P1;durP2;ratioP2;P2;SDS_P1;SDS_P2;PMS_P1;PMS_P2;Temp;Humidity;BMP_temperature;BMP_pressure;BME280_temperature;BME280_humidity;BME280_pressure;Samples;Min_cycle;Max_cycle;Signal;HPM_P1;HPM_P2
2022/05/02 00:01:59;;;;;;;;;11.00;11.00;;;;;12.99;46.28;101683.00;4979840;28;60778;-61
2022/05/02 00:04:25;;;;;;;;;13.67;13.00;;;;;13.00;46.34;101684.72;4979881;28;59492;-61
2022/05/02 00:06:50;;;;;;;;;14.33;12.33;;;;;13.01;46.19;101679.31;4979470;28;53326;-61
2022/05/02 00:09:15;;;;;;;;;15.00;14.00;;;;;13.06;46.26;101674.63;4978671;28;63568;-61
2022/05/02 00:11:41;;;;;;;;;14.33;14.00;;;;;13.11;46.00;101687.75;4979454;28;63204;-61
2022/05/02 00:14:06;;;;;;;;;17.00;13.33;;;;;13.15;46.73;101681.31;4979744;28;60772;-61
2022/05/02 00:16:31;;;;;;;;;15.33;13.00;;;;;13.18;45.83;101677.63;4980655;28;45422;-61
2022/05/02 00:18:57;;;;;;;;;14.67;11.67;;;;;13.21;46.12;101669.50;4979222;28;63526;-61
2022/05/02 00:21:22;;;;;;;;;17.00;15.33;;;;;13.23;45.76;101673.81;4980232;28;45287;-61
2022/05/02 00:23:48;;;;;;;;;15.00;13.00;;;;;13.22;45.98;101669.41;4980174;28;45273;-61
2022/05/02 00:26:13;;;;;;;;;14.67;13.67;;;;;13.24;45.76;101664.00;4979557;28;60642;-61
2022/05/02 00:28:38;;;;;;;;;14.00;13.00;;;;;13.27;45.80;101660.31;4979389;28;66095;-61
2022/05/02 00:31:04;;;;;;;;;14.67;13.67;;;;;13.29;45.67;101661.97;4979389;28;45294;-61
2022/05/02 00:33:29;;;;;;;;;17.00;15.00;;;;;13.29;45.84;101659.31;4979841;28;45159;-61
2022/05/02 00:35:55;;;;;;;;;14.00;14.00;;;;;13.29;45.75;101659.31;4979380;28;45664;-61
2022/05/02 00:38:20;;;;;;;;;14.00;14.00;;;;;13.30;45.79;101661.03;4979341;28;61065;-61
2022/05/02 00:40:46;;;;;;;;;15.33;12.67;;;;;13.33;45.77;101657.34;4978287;28;64955;-61
2022/05/02 00:43:11;;;;;;;;;15.33;13.33;;;;;13.33;45.73;101655.53;4962880;28;45468;-61
2022/05/02 00:45:37;;;;;;;;;14.67;12.00;;;;;13.33;45.59;101657.34;4961686;28;57544;-61
2022/05/02 00:48:03;;;;;;;;;17.00;14.67;;;;;13.28;45.63;101654.88;4979764;28;47148;-61
2022/05/02 00:50:38;;;;;;;;;16.33;14.00;;;;;13.24;45.77;101650.63;4979903;28;45229;-61
2022/05/02 00:53:04;;;;;;;;;13.67;12.67;;;;;13.22;45.82;101639.19;4977683;28;45590;-61
2022/05/02 00:55:30;;;;;;;;;14.33;12.33;;;;;13.21;45.87;101642.78;4979185;28;45365;-61
2022/05/02 00:57:57;;;;;;;;;14.33;14.33;;;;;13.20;45.73;101649.06;4979056;28;46370;-61
2022/05/02 01:00:22;;;;;;;;;14.33;13.67;;;;;13.19;46.04;101637.53;4979635;28;45377;-61
2022/05/02 01:02:48;;;;;;;;;16.67;16.00;;;;;13.17;45.86;101620.69;4978468;28;63210;-61
2022/05/02 01:05:13;;;;;;;;;18.67;18.33;;;;;13.15;46.18;101627.91;4961788;28;58654;-61
2022/05/02 01:07:38;;;;;;;;;16.33;15.67;;;;;13.12;45.81;101619.19;4978980;28;63734;-61
2022/05/02 01:10:04;;;;;;;;;19.67;15.33;;;;;13.10;46.09;101621.03;4978888;28;60221;-61
2022/05/02 01:12:29;;;;;;;;;15.67;15.67;;;;;13.08;45.97;101621.13;4978121;28;45299;-61
2022/05/02 01:14:57;;;;;;;;;16.67;16.00;;;;;13.07;46.13;101609.59;4978850;28;47540;-61
2022/05/02 01:17:23;;;;;;;;;15.00;15.00;;;;;13.06;45.86;101612.31;4978398;28;47112;-61
2022/05/02 01:19:49;;;;;;;;;17.67;16.00;;;;;13.07;46.15;101612.25;4979126;28;45342;-61
2022/05/02 01:22:15;;;;;;;;;17.67;14.67;;;;;13.08;46.14;101608.63;4962121;28;45452;-61
2022/05/02 01:24:42;;;;;;;;;18.00;16.67;;;;;13.08;45.80;101610.44;4978883;28;45416;-61
2022/05/02 01:27:08;;;;;;;;;21.33;19.67;;;;;13.08;45.87;101607.78;4979371;28;45373;-61
2022/05/02 01:29:34;;;;;;;;;18.67;15.00;;;;;13.06;46.13;101609.63;4973991;28;45278;-61
2022/05/02 01:32:01;;;;;;;;;19.67;18.00;;;;;13.03;46.02;101609.78;4979241;28;45291;-61
2022/05/02 01:34:26;;;;;;;;;16.33;16.00;;;;;13.01;46.27;101606.31;4979458;28;45248;-61
2022/05/02 01:36:52;;;;;;;;;21.00;18.33;;;;;13.00;46.01;101604.63;4978174;28;46100;-61
2022/05/02 01:39:17;;;;;;;;;17.00;17.00;;;;;12.98;46.02;101615.34;4979385;28;45418;-61
2022/05/02 01:41:43;;;;;;;;;16.00;14.67;;;;;12.97;46.28;101615.41;4978713;28;45584;-61
2022/05/02 01:44:09;;;;;;;;;17.00;17.00;;;;;12.95;46.06;101610.16;4979422;28;45222;-61
2022/05/02 01:46:34;;;;;;;;;22.67;17.33;;;;;12.92;46.01;101612.97;4978563;28;46265;-61
2022/05/02 01:49:00;;;;;;;;;19.33;17.67;;;;;12.89;45.93;101611.31;4977819;28;45426;-61
2022/05/02 01:51:25;;;;;;;;;18.67;17.67;;;;;12.89;46.27;101619.34;4977771;28;59795;-61
2022/05/02 01:53:51;;;;;;;;;21.67;18.67;;;;;12.88;46.19;101622.03;4977642;28;58089;-61
2022/05/02 01:56:16;;;;;;;;;21.00;19.00;;;;;12.85;46.03;101616.88;4977376;28;45427;-61
2022/05/02 01:58:41;;;;;;;;;19.00;18.00;;;;;12.84;46.21;101615.13;4978589;28;45682;-61
2022/05/02 02:01:07;;;;;;;;;19.67;17.00;;;;;12.85;46.68;101619.53;4978531;28;57960;-61
2022/05/02 02:03:32;;;;;;;;;19.67;19.00;;;;;12.83;46.55;101616.09;4977686;28;61118;-62
2022/05/02 02:05:58;;;;;;;;;20.67;18.00;;;;;12.80;46.49;101614.44;4968070;28;45470;-61
2022/05/02 02:08:25;;;;;;;;;22.67;18.00;;;;;12.81;46.64;101616.13;4979069;28;45351;-61
2022/05/02 02:10:53;;;;;;;;;19.33;17.33;;;;;12.82;46.41;101615.19;4978814;28;45304;-61
2022/05/02 02:13:18;;;;;;;;;20.67;20.67;;;;;12.83;46.30;101614.28;4979133;28;45294;-61
2022/05/02 02:15:44;;;;;;;;;25.33;20.67;;;;;12.83;46.42;101616.09;4960749;28;46110;-61
2022/05/02 02:18:09;;;;;;;;;22.67;22.33;;;;;12.81;46.26;101612.59;4979097;28;45389;-61
2022/05/02 02:20:35;;;;;;;;;24.33;22.67;;;;;12.82;46.16;101611.69;4979069;28;45289;-61
2022/05/02 02:23:00;;;;;;;;;22.33;20.00;;;;;12.82;46.23;101606.34;4984008;28;45419;-61
2022/05/02 02:25:26;;;;;;;;;21.00;20.67;;;;;12.81;46.35;101604.59;4982024;28;52394;-61
2022/05/02 02:27:52;;;;;;;;;22.67;22.33;;;;;12.79;46.45;101610.03;4981390;28;51159;-61
2022/05/02 02:30:19;;;;;;;;;23.00;21.33;;;;;12.74;46.20;101596.00;4981711;28;45348;-61
2022/05/02 02:32:44;;;;;;;;;25.33;20.33;;;;;12.74;46.50;101598.69;4981515;28;45636;-61
2022/05/02 02:35:10;;;;;;;;;26.33;23.33;;;;;12.71;46.59;101598.81;4981035;28;46060;-61
2022/05/02 02:37:35;;;;;;;;;27.67;24.67;;;;;12.69;46.40;101596.22;4982018;28;45223;-61
2022/05/02 02:40:00;;;;;;;;;22.00;21.00;;;;;12.67;46.43;101594.56;4981416;28;57524;-61
2022/05/02 02:42:26;;;;;;;;;25.00;20.67;;;;;12.65;46.97;101597.31;4981355;28;59962;-61
2022/05/02 02:44:51;;;;;;;;;29.33;24.00;;;;;12.63;46.44;101593.81;4980719;28;64555;-61
2022/05/02 02:47:17;;;;;;;;;26.00;24.33;;;;;12.60;46.73;101595.78;4981980;28;45310;-61
2022/05/02 02:49:42;;;;;;;;;23.00;22.67;;;;;12.56;46.70;101600.41;4980045;28;45342;-61
2022/05/02 02:52:08;;;;;;;;;24.33;23.00;;;;;12.54;46.64;101597.81;4980991;28;59621;-61
2022/05/02 02:54:34;;;;;;;;;25.00;21.00;;;;;12.51;46.81;101591.72;4981623;28;46867;-61
2022/05/02 02:56:59;;;;;;;;;29.33;27.00;;;;;12.49;46.73;101590.91;4981341;28;45800;-61
2022/05/02 02:59:24;;;;;;;;;25.67;23.33;;;;;12.47;46.51;101587.47;4981066;28;61596;-61
2022/05/02 03:01:50;;;;;;;;;27.00;26.33;;;;;12.46;46.69;101588.41;4980347;28;60265;-61
2022/05/02 03:06:59;;;;;;;;;24.00;24.00;;;;;12.39;46.82;101582.50;4981133;28;45361;-61
2022/05/02 03:09:24;;;;;;;;;26.67;25.00;;;;;12.38;47.40;101572.75;4963454;28;61173;-61
2022/05/02 03:11:50;;;;;;;;;29.33;25.00;;;;;12.36;46.85;101572.81;4980192;28;62288;-61
2022/05/02 03:14:15;;;;;;;;;23.33;20.67;;;;;12.36;47.13;101571.97;4980180;28;66196;-61
2022/05/02 03:16:41;;;;;;;;;24.33;23.33;;;;;12.35;47.00;101571.06;4980077;28;62973;-61
2022/05/02 03:19:06;;;;;;;;;25.33;22.33;;;;;12.31;46.78;101569.50;4981641;28;45434;-61
2022/05/02 03:21:31;;;;;;;;;26.67;24.67;;;;;12.32;46.81;101562.34;4986207;28;45484;-61
2022/05/02 03:23:57;;;;;;;;;26.00;25.33;;;;;12.30;47.18;101567.75;4980022;28;59123;-61
2022/05/02 03:26:22;;;;;;;;;27.33;22.33;;;;;12.29;47.04;101559.81;4980112;28;62118;-61
2022/05/02 03:28:47;;;;;;;;;26.00;23.67;;;;;12.30;47.01;101557.09;4980258;28;58449;-61
2022/05/02 03:31:13;;;;;;;;;27.33;24.67;;;;;12.30;47.17;101557.09;4980810;28;46967;-61
2022/05/02 03:33:38;;;;;;;;;27.00;25.67;;;;;12.31;46.95;101555.31;4980633;28;52094;-61
2022/05/02 03:36:04;;;;;;;;;29.67;27.00;;;;;12.30;46.87;101562.41;4979967;28;62786;-61
2022/05/02 03:38:29;;;;;;;;;26.00;23.00;;;;;12.31;46.99;101557.97;4980978;28;45285;-61
2022/05/02 03:40:55;;;;;;;;;26.00;23.00;;;;;12.31;47.05;101561.50;4980062;28;60177;-61
2022/05/02 03:43:20;;;;;;;;;28.67;26.00;;;;;12.32;47.19;101552.56;4980329;28;65809;-60
2022/05/02 03:45:46;;;;;;;;;31.67;23.67;;;;;12.33;47.13;101559.63;4980051;28;45500;-60
2022/05/02 03:48:11;;;;;;;;;30.67;23.00;;;;;12.33;47.04;101556.97;4980553;28;54177;-60
2022/05/02 03:50:36;;;;;;;;;24.00;22.33;;;;;12.35;46.89;101551.56;4980567;28;45622;-60
2022/05/02 03:53:02;;;;;;;;;23.00;21.33;;;;;12.36;46.98;101554.16;4979306;28;66882;-60
2022/05/02 03:55:27;;;;;;;;;28.00;20.33;;;;;12.36;46.93;101556.81;4980893;28;45204;-61
2022/05/02 03:57:52;;;;;;;;;30.00;28.00;;;;;12.35;47.23;101559.56;4979269;28;58708;-61
2022/05/02 04:00:18;;;;;;;;;32.00;25.33;;;;;12.32;46.73;101557.88;4980216;28;45588;-61
2022/05/02 04:02:44;;;;;;;;;24.00;22.33;;;;;12.30;47.23;101557.09;4980179;28;47032;-61
2022/05/02 04:05:09;;;;;;;;;22.00;22.00;;;;;12.30;46.87;101562.41;4979844;28;62308;-61
2022/05/02 04:07:34;;;;;;;;;24.33;23.00;;;;;12.30;46.97;101557.09;4980823;28;45848;-60
2022/05/02 04:10:00;;;;;;;;;28.33;23.33;;;;;12.31;47.14;101557.97;4978395;28;62859;-61
2022/05/02 04:12:25;;;;;;;;;31.00;27.67;;;;;12.30;46.76;101551.75;4980817;28;45949;-60
2022/05/02 04:14:50;;;;;;;;;29.67;23.67;;;;;12.30;46.83;101558.91;4978638;28;54708;-61
2022/05/02 04:17:16;;;;;;;;;30.67;26.00;;;;;12.28;47.06;101558.09;4980134;28;55929;-61
2022/05/02 04:19:41;;;;;;;;;33.33;29.00;;;;;12.25;47.35;101556.41;4979410;28;60613;-60
2022/05/02 04:22:07;;;;;;;;;26.00;24.33;;;;;12.22;46.99;101557.44;4979693;28;63710;-61
2022/05/02 04:24:32;;;;;;;;;26.33;26.33;;;;;12.24;47.25;101557.34;4979598;28;58642;-60
2022/05/02 04:26:58;;;;;;;;;26.67;23.00;;;;;12.24;47.14;101560.91;4979530;28;45315;-60
2022/05/02 04:29:23;;;;;;;;;28.00;24.67;;;;;12.26;47.26;101560.81;4979350;28;58844;-60
2022/05/02 04:31:49;;;;;;;;;27.67;24.33;;;;;12.24;47.20;101558.25;4979137;28;46275;-61
2022/05/02 04:34:14;;;;;;;;;27.33;23.33;;;;;12.25;47.78;101561.75;4979845;28;45381;-60
2022/05/02 04:36:40;;;;;;;;;24.67;24.33;;;;;12.25;47.77;101559.09;4979137;28;45452;-61
2022/05/02 04:39:05;;;;;;;;;26.00;23.33;;;;;12.23;48.37;101561.84;4979754;28;59785;-60
2022/05/02 04:41:30;;;;;;;;;26.67;22.67;;;;;12.24;48.37;101557.34;4979755;28;46066;-61
2022/05/02 04:43:56;;;;;;;;;22.67;21.33;;;;;12.24;48.49;101557.34;4978677;28;53512;-60
2022/05/02 04:46:21;;;;;;;;;23.67;22.33;;;;;12.22;48.46;101560.09;4979157;28;45239;-60
2022/05/02 04:48:47;;;;;;;;;26.67;26.67;;;;;12.22;48.92;101560.09;4979655;28;45359;-60
2022/05/02 04:51:12;;;;;;;;;26.33;24.67;;;;;12.23;48.96;101560.97;4979838;28;45304;-60
2022/05/02 04:53:38;;;;;;;;;26.00;23.67;;;;;12.24;48.93;101562.69;4979689;28;45344;-60
2022/05/02 04:56:03;;;;;;;;;23.00;23.00;;;;;12.24;48.90;101568.91;4979430;28;45501;-60
2022/05/02 04:58:29;;;;;;;;;33.33;26.67;;;;;12.23;49.18;101567.16;4979912;28;45522;-60
2022/05/02 05:00:54;;;;;;;;;27.67;23.67;;;;;12.20;49.43;101569.97;4978450;28;47448;-60
2022/05/02 05:03:21;;;;;;;;;28.33;25.00;;;;;12.18;49.36;101565.66;4978467;28;63635;-60
2022/05/02 05:05:46;;;;;;;;;30.33;27.33;;;;;12.17;49.23;101570.09;4975442;28;45397;-61
2022/05/02 05:08:13;;;;;;;;;26.33;24.33;;;;;12.18;49.64;101568.31;4978808;28;45689;-61
2022/05/02 05:10:53;;;;;;;;;24.00;24.00;;;;;12.15;49.79;101566.66;4979910;28;47227;-61
2022/05/02 05:13:19;;;;;;;;;29.33;27.00;;;;;12.15;50.21;101563.09;4976146;28;45480;-61
2022/05/02 05:16:22;;;;;;;;;26.67;25.00;;;;;12.16;49.72;101570.19;4961902;28;45425;-61
2022/05/02 05:19:04;;;;;;;;;30.67;27.67;;;;;12.21;49.78;101576.16;4972330;28;45594;-61
2022/05/02 05:21:53;;;;;;;;;30.67;27.67;;;;;12.23;50.04;101576.97;4963740;28;45448;-61
2022/05/02 05:24:30;;;;;;;;;32.00;28.00;;;;;12.29;50.51;101573.16;4977743;28;45287;-61
2022/05/02 05:27:17;;;;;;;;;29.33;25.67;;;;;12.30;50.07;101572.22;4977894;28;45480;-61
2022/05/02 05:30:02;;;;;;;;;25.67;23.00;;;;;12.32;50.01;101567.69;4968774;28;45384;-61
2022/05/02 05:32:38;;;;;;;;;23.67;23.67;;;;;12.36;50.00;101563.97;4979148;28;45313;-60
2022/05/02 05:35:07;;;;;;;;;32.67;28.00;;;;;12.40;50.06;101570.88;4978490;28;45322;-61
2022/05/02 05:38:10;;;;;;;;;33.00;31.33;;;;;12.46;49.59;101573.25;4979008;28;45386;-60
2022/05/02 05:40:36;;;;;;;;;27.00;26.00;;;;;12.57;49.90;101570.09;4963331;28;45279;-60
2022/05/02 05:43:22;;;;;;;;;34.00;27.67;;;;;12.68;49.27;101557.09;4973607;28;46088;-60
2022/05/02 05:46:15;;;;;;;;;37.00;32.00;;;;;12.77;49.19;101561.16;4978623;28;45322;-60
2022/05/02 05:49:08;;;;;;;;;38.67;31.67;;;;;12.87;49.17;101561.59;4977649;28;45546;-60
2022/05/02 05:51:48;;;;;;;;;35.33;32.67;;;;;12.93;48.60;101555.94;4978918;28;45330;-60
2022/05/02 05:54:16;;;;;;;;;40.00;33.33;;;;;13.01;48.80;101556.47;4961800;28;46335;-60
2022/05/02 05:56:57;;;;;;;;;36.50;32.75;;;;;13.06;48.54;101556.22;4973622;28;45428;-60
2022/05/02 05:59:34;;;;;;;;;29.67;27.00;;;;;13.13;48.36;101562.13;4980204;28;45346;-60
2022/05/02 06:02:19;;;;;;;;;39.25;33.75;;;;;13.20;48.72;101560.91;4978638;28;45822;-60
2022/05/02 06:04:47;;;;;;;;;31.75;29.75;;;;;13.25;48.38;101561.53;4962659;28;47306;-61
2022/05/02 06:07:12;;;;;;;;;30.67;28.67;;;;;13.34;48.38;101560.22;4963189;28;45408;-60
2022/05/02 06:09:38;;;;;;;;;35.00;28.33;;;;;13.45;48.02;101552.56;4981063;28;58026;-60
2022/05/02 06:12:04;;;;;;;;;39.25;32.50;;;;;13.56;48.09;101554.72;4947220;28;45602;-60
2022/05/02 06:14:30;;;;;;;;;43.00;34.50;;;;;13.68;47.88;101562.09;4981872;28;46680;-60
2022/05/02 06:19:46;;;;;;;;;38.00;34.33;;;;;13.85;47.39;101565.72;4981451;28;45500;-60
2022/05/02 06:22:12;;;;;;;;;39.33;33.00;;;;;13.91;47.55;101565.41;4981974;28;45512;-60
2022/05/02 06:24:37;;;;;;;;;36.00;33.33;;;;;13.98;47.08;101558.78;4956017;28;65661;-59
2022/05/02 06:27:03;;;;;;;;;38.50;35.00;;;;;14.05;47.28;101568.22;4962541;28;45386;-59
2022/05/02 06:29:28;;;;;;;;;42.00;33.33;;;;;14.11;46.94;101561.69;4948472;28;45399;-61
2022/05/02 06:31:54;;;;;;;;;41.75;34.00;;;;;14.17;46.84;101568.50;4979879;28;45231;-61
2022/05/02 06:34:26;;;;;;;;;37.75;34.00;;;;;14.23;46.73;101566.34;4947908;28;46069;-60
2022/05/02 06:37:45;;;;;;;;;44.25;36.00;;;;;14.27;46.59;101567.06;4976212;28;45506;-61
2022/05/02 06:40:30;;;;;;;;;38.00;34.00;;;;;14.17;46.60;101563.16;4940997;28;45502;-61
2022/05/02 06:43:04;;;;;;;;;46.33;34.67;;;;;14.21;46.42;101564.75;4956952;28;45530;-61
2022/05/02 06:45:34;;;;;;;;;37.33;34.33;;;;;14.29;46.77;101561.63;4951552;28;47278;-62
2022/05/02 06:48:05;;;;;;;;;44.67;36.00;;;;;14.36;46.44;101566.56;4963264;28;45690;-65
2022/05/02 06:50:32;;;;;;;;;45.25;38.50;;;;;14.47;46.44;101570.47;4981292;28;45411;-65
2022/05/02 06:53:19;;;;;;;;;46.25;37.00;;;;;14.60;46.61;101578.72;4980367;28;45584;-65
2022/05/02 06:55:51;;;;;;;;;47.00;35.67;;;;;14.71;45.84;101576.34;4963641;28;45551;-65
2022/05/02 06:58:51;;;;;;;;;44.33;37.00;;;;;14.86;46.07;101574.63;4981221;28;45456;-65
2022/05/02 07:01:24;;;;;;;;;43.67;36.00;;;;;15.01;45.64;101578.28;4981469;28;45290;-65
2022/05/02 07:04:04;;;;;;;;;47.75;35.25;;;;;15.15;45.34;101574.81;4963627;28;45480;-65
2022/05/02 07:06:50;;;;;;;;;39.00;31.67;;;;;15.25;44.36;101575.13;4980961;28;45303;-66
2022/05/02 07:09:26;;;;;;;;;43.67;34.00;;;;;15.27;43.77;101578.59;4980305;28;45370;-66
2022/05/02 07:12:11;;;;;;;;;41.33;33.33;;;;;15.36;43.10;101578.91;4963555;28;45342;-65
2022/05/02 07:15:01;;;;;;;;;35.67;32.67;;;;;15.54;43.17;101579.66;4980996;28;45231;-65
2022/05/02 07:17:40;;;;;;;;;35.00;31.00;;;;;15.69;42.65;101575.22;4981026;28;46309;-66
2022/05/02 07:20:06;;;;;;;;;36.67;31.33;;;;;15.84;42.67;101570.78;4981329;28;45318;-66
2022/05/02 07:22:31;;;;;;;;;34.33;30.67;;;;;15.98;42.40;101566.41;4965757;28;46198;-65
2022/05/02 07:25:10;;;;;;;;;30.33;28.67;;;;;16.19;41.83;101573.16;4980705;28;46381;-65
2022/05/02 07:28:16;;;;;;;;;37.67;33.00;;;;;16.58;41.32;101572.56;4980625;28;45572;-66
2022/05/02 07:30:42;;;;;;;;;42.00;34.33;;;;;17.06;40.88;101565.03;4965395;28;45508;-65
2022/05/02 07:33:07;;;;;;;;;40.33;32.67;;;;;17.35;39.98;101571.19;4948434;28;59457;-66
2022/05/02 07:35:33;;;;;;;;;40.67;34.00;;;;;17.62;39.58;101572.13;4977468;28;45459;-66
2022/05/02 07:37:58;;;;;;;;;37.33;32.67;;;;;18.10;39.45;101571.59;4942510;28;65486;-66
2022/05/02 07:40:23;;;;;;;;;38.33;34.33;;;;;18.72;38.67;101576.16;4977030;28;45320;-66
2022/05/02 07:42:49;;;;;;;;;34.67;31.00;;;;;19.25;37.70;101573.22;4980042;28;55697;-66
2022/05/02 07:45:17;;;;;;;;;36.67;32.67;;;;;19.61;36.98;101568.72;4946399;28;45405;-66
2022/05/02 07:47:43;;;;;;;;;40.00;36.33;;;;;19.87;35.92;101565.88;4980123;28;45412;-66
2022/05/02 07:50:10;;;;;;;;;40.67;34.00;;;;;19.74;35.91;101565.09;4980537;28;45234;-66
2022/05/02 07:52:36;;;;;;;;;46.00;35.00;;;;;19.63;35.63;101566.78;4980600;28;45706;-66
2022/05/02 07:55:02;;;;;;;;;38.33;34.67;;;;;19.51;35.72;101570.38;4980307;28;45305;-66
2022/05/02 07:57:28;;;;;;;;;44.33;37.67;;;;;19.38;35.45;101566.91;4980367;28;45926;-64
2022/05/02 07:59:54;;;;;;;;;45.33;35.67;;;;;19.37;35.97;101570.56;4942520;28;45410;-66
2022/05/02 08:02:20;;;;;;;;;40.67;31.00;;;;;19.55;35.79;101573.72;4980079;28;45517;-66
2022/05/02 08:04:45;;;;;;;;;44.67;34.67;;;;;19.79;35.24;101568.28;4946434;28;45268;-66
2022/05/02 08:07:14;;;;;;;;;36.33;33.00;;;;;20.10;34.46;101582.13;4946588;28;45340;-66
2022/05/02 08:10:15;;;;;;;;;44.33;35.67;;;;;20.26;33.38;101571.84;4962760;28;45712;-66
2022/05/02 08:12:57;;;;;;;;;47.00;37.67;;;;;20.46;34.00;101572.94;4964659;28;45303;-66
2022/05/02 08:15:26;;;;;;;;;40.00;35.33;;;;;20.57;33.58;101574.81;4962820;28;45381;-65
2022/05/02 08:18:26;;;;;;;;;43.67;36.00;;;;;20.48;33.95;101576.41;4979804;28;46074;-66
2022/05/02 08:21:13;;;;;;;;;39.67;34.67;;;;;20.51;33.82;101572.59;4963795;28;45560;-66
2022/05/02 08:27:24;;;;;;;;;44.00;36.33;;;;;20.47;34.09;101571.13;4976458;28;45376;-66
2022/05/02 08:30:05;;;;;;;;;37.67;33.00;;;;;20.91;33.39;101569.41;4960909;28;45454;-66
2022/05/02 08:32:45;;;;;;;;;39.33;35.00;;;;;21.38;32.73;101561.03;4979942;28;45354;-66
2022/05/02 08:35:14;;;;;;;;;47.33;38.00;;;;;21.52;32.18;101567.97;4973523;28;45236;-66
2022/05/02 08:38:13;;;;;;;;;46.33;38.00;;;;;21.54;32.16;101563.31;4974572;28;45338;-66
2022/05/02 08:41:12;;;;;;;;;39.00;33.67;;;;;22.13;31.98;101555.59;4964976;28;45701;-67
2022/05/02 08:44:02;;;;;;;;;39.00;32.33;;;;;23.03;30.97;101564.78;4961857;28;45369;-66
2022/05/02 08:46:37;;;;;;;;;50.33;36.33;;;;;23.84;30.59;101558.25;4972074;28;45571;-66
2022/05/02 08:49:33;;;;;;;;;36.33;32.00;;;;;24.69;29.67;101563.75;4975321;28;45373;-65
2022/05/02 08:52:13;;;;;;;;;44.67;35.67;;;;;25.49;29.14;101549.47;4978804;28;46117;-66
2022/05/02 08:55:12;;;;;;;;;41.67;35.67;;;;;25.98;28.57;101556.31;4973732;28;45551;-65
2022/05/02 08:57:56;;;;;;;;;42.67;34.00;;;;;26.38;27.64;101555.72;4979568;28;45291;-66
2022/05/02 09:00:51;;;;;;;;;43.00;34.67;;;;;27.00;26.48;101559.22;4974477;28;45508;-66
2022/05/02 09:03:38;;;;;;;;;38.00;32.00;;;;;27.95;26.07;101556.06;4979463;28;45735;-66
2022/05/02 09:06:06;;;;;;;;;46.00;36.00;;;;;28.96;25.67;101561.03;4974049;28;45453;-66
2022/05/02 09:08:55;;;;;;;;;39.00;33.67;;;;;29.82;24.01;101550.78;4979598;28;45294;-66
2022/05/02 09:11:33;;;;;;;;;40.33;31.00;;;;;30.89;23.31;101542.41;4979495;28;45474;-66
2022/05/02 09:14:35;;;;;;;;;44.00;36.00;;;;;31.79;22.48;101557.44;4978219;28;46180;-66
2022/05/02 09:17:15;;;;;;;;;37.33;33.33;;;;;32.45;21.77;101555.34;4978583;28;45473;-66
2022/05/02 09:20:09;;;;;;;;;36.33;33.00;;;;;33.08;21.31;101557.94;4974167;28;45435;-66
2022/05/02 09:23:05;;;;;;;;;41.67;35.00;;;;;33.73;20.79;101543.59;4955843;28;46024;-66
2022/05/02 09:25:51;;;;;;;;;40.67;35.00;;;;;33.64;20.14;101542.97;4972499;28;46296;-66
2022/05/02 09:28:21;;;;;;;;;46.00;38.33;;;;;33.60;18.93;101554.66;4978759;28;45365;-66
2022/05/02 09:31:08;;;;;;;;;41.67;35.00;;;;;34.01;20.08;101544.44;4978576;28;45313;-66
2022/05/02 09:33:55;;;;;;;;;39.33;31.67;;;;;34.59;18.19;101543.66;4978960;28;45275;-66
2022/05/02 09:36:27;;;;;;;;;44.00;35.33;;;;;34.97;17.38;101544.75;4976268;28;45425;-66
2022/05/02 09:39:04;;;;;;;;;42.00;36.00;;;;;35.59;17.92;101545.81;4978063;28;45417;-67
2022/05/02 09:41:51;;;;;;;;;40.33;34.00;;;;;36.34;15.88;101543.16;4979114;28;45378;-66
2022/05/02 09:50:35;;;;;;;;;41.00;35.33;;;;;36.16;16.21;101536.53;4978766;28;45567;-66
2022/05/02 09:53:03;;;;;;;;;43.67;35.00;;;;;35.46;17.14;101540.38;4960997;28;45479;-66
2022/05/02 09:58:32;;;;;;;;;39.00;32.00;;;;;33.56;17.82;101542.31;4978689;28;45675;-66
2022/05/02 10:01:08;;;;;;;;;38.33;35.00;;;;;32.93;17.89;101538.84;4978144;28;45427;-66
2022/05/02 10:04:01;;;;;;;;;39.67;33.67;;;;;32.35;17.97;101533.72;4962040;28;45481;-66
2022/05/02 10:06:30;;;;;;;;;42.67;33.00;;;;;31.57;19.37;101537.38;4978898;28;45455;-66
2022/05/02 10:08:57;;;;;;;;;40.67;33.00;;;;;30.99;19.44;101535.53;4978141;28;46185;-66
2022/05/02 10:11:37;;;;;;;;;36.67;32.33;;;;;30.90;19.71;101533.97;4945103;28;45302;-66
2022/05/02 10:14:18;;;;;;;;;34.33;32.33;;;;;31.47;19.89;101537.72;4961573;28;45320;-67
2022/05/02 10:16:48;;;;;;;;;39.33;33.33;;;;;32.43;19.27;101530.78;4960909;28;45638;-67
2022/05/02 10:19:14;;;;;;;;;37.33;32.67;;;;;33.22;18.49;101527.66;4978491;28;45231;-66
2022/05/02 10:21:59;;;;;;;;;39.33;34.67;;;;;33.78;18.55;101526.41;4976887;28;45580;-66
2022/05/02 10:24:47;;;;;;;;;39.00;32.33;;;;;34.90;17.90;101526.31;4973466;28;45372;-66
2022/05/02 10:27:34;;;;;;;;;37.00;31.33;;;;;35.85;17.61;101527.28;4972425;28;45366;-66
2022/05/02 10:30:06;;;;;;;;;36.00;32.00;;;;;35.79;16.29;101519.88;4977279;28;45424;-67
2022/05/02 10:32:31;;;;;;;;;33.67;30.00;;;;;34.98;16.75;101524.34;4978435;28;45369;-66
2022/05/02 10:35:01;;;;;;;;;34.00;32.33;;;;;34.52;17.34;101516.06;4978015;28;45267;-67
2022/05/02 10:37:35;;;;;;;;;33.67;30.67;;;;;34.41;17.57;101512.06;4945386;28;45533;-67
2022/05/02 10:40:10;;;;;;;;;33.33;30.00;;;;;34.83;16.60;101510.81;4978047;28;45334;-67
2022/05/02 10:42:35;;;;;;;;;37.33;32.00;;;;;34.95;17.50;101514.59;4972941;28;45324;-67
2022/05/02 10:45:08;;;;;;;;;35.00;31.00;;;;;35.24;16.64;101512.25;4979778;28;45218;-66
2022/05/02 10:47:41;;;;;;;;;29.67;28.67;;;;;34.94;16.64;101516.50;4981589;28;45445;-66
2022/05/02 10:50:16;;;;;;;;;26.00;26.00;;;;;34.98;16.29;101514.16;4981262;28;47187;-66
2022/05/02 10:52:47;;;;;;;;;36.67;31.67;;;;;34.56;16.72;101505.44;4980845;28;46240;-66
2022/05/02 10:55:20;;;;;;;;;32.00;28.33;;;;;34.50;16.84;101503.53;4980307;28;45292;-66
2022/05/02 10:57:53;;;;;;;;;35.00;32.33;;;;;34.53;16.54;101505.88;4980607;28;45278;-66
2022/05/02 11:00:19;;;;;;;;;29.33;28.00;;;;;34.56;17.18;101499.91;4975969;28;46344;-66
2022/05/02 11:03:03;;;;;;;;;35.67;29.33;;;;;35.09;16.23;101505.13;4980922;28;45432;-66
2022/05/02 11:05:36;;;;;;;;;37.67;32.00;;;;;34.57;16.91;101499.69;4981538;28;45548;-66
2022/05/02 11:08:11;;;;;;;;;28.33;28.00;;;;;33.88;17.15;101498.41;4981056;28;45398;-66
2022/05/02 11:10:58;;;;;;;;;28.67;28.00;;;;;33.33;17.57;101502.25;4964172;28;47484;-66
2022/05/02 11:13:23;;;;;;;;;34.67;29.00;;;;;32.95;17.57;101498.16;4977532;28;45578;-66
2022/05/02 11:16:16;;;;;;;;;31.00;28.33;;;;;32.04;18.40;101488.22;4980878;28;45360;-66
2022/05/02 11:22:08;;;;;;;;;28.33;27.33;;;;;32.64;17.14;101494.00;4978821;28;45497;-66
2022/05/02 11:24:42;;;;;;;;;27.67;25.00;;;;;32.11;17.96;101483.63;4979845;28;45748;-66
2022/05/02 11:27:21;;;;;;;;;26.33;25.33;;;;;31.80;18.14;101486.84;4981150;28;45545;-66
2022/05/02 11:30:06;;;;;;;;;28.67;28.67;;;;;31.76;18.35;101489.13;4980347;28;45381;-66
2022/05/02 11:33:06;;;;;;;;;27.67;26.67;;;;;30.24;19.32;101477.19;4980913;28;46165;-65
2022/05/02 11:35:33;;;;;;;;;28.33;27.33;;;;;28.86;20.89;101487.34;4981050;28;45417;-65
2022/05/02 11:38:16;;;;;;;;;24.33;23.67;;;;;28.09;21.51;101486.16;4980428;28;45254;-66
2022/05/02 11:40:46;;;;;;;;;32.00;30.00;;;;;27.94;22.22;101486.00;4980418;28;45307;-65
2022/05/02 11:43:15;;;;;;;;;33.67;26.67;;;;;27.79;22.49;101476.81;4963539;28;45337;-66
2022/05/02 11:45:50;;;;;;;;;24.33;23.00;;;;;27.28;22.54;101479.75;4962444;28;45381;-66
2022/05/02 11:48:40;;;;;;;;;22.67;22.67;;;;;26.66;23.63;101484.59;4980585;28;45512;-66
2022/05/02 11:51:05;;;;;;;;;30.33;29.00;;;;;26.07;24.32;101477.22;4980650;28;45316;-66
2022/05/02 11:53:33;;;;;;;;;28.00;27.33;;;;;25.79;24.14;101471.06;4962859;28;46392;-66